sensor_id;sensor_type;location;lat;lon;timestamp;temperature;humidity
66928;DHT22;59882;45.624;11.698;2023-07-20T00:02:23;24.70;75.40
66928;DHT22;59882;45.624;11.698;2023-07-20T00:04:49;24.70;75.30
66928;DHT22;59882;45.624;11.698;2023-07-20T00:07:15;24.70;75.50
66928;DHT22;59882;45.624;11.698;2023-07-20T00:09:40;24.70;75.30
66928;DHT22;59882;45.624;11.698;2023-07-20T00:12:06;24.70;75.30
66928;DHT22;59882;45.624;11.698;2023-07-20T00:14:32;24.80;75.30
66928;DHT22;59882;45.624;11.698;2023-07-20T00:16:58;24.80;75.20
66928;DHT22;59882;45.624;11.698;2023-07-20T00:19:27;24.90;75.60
66928;DHT22;59882;45.624;11.698;2023-07-20T00:21:53;24.70;74.80
66928;DHT22;59882;45.624;11.698;2023-07-20T00:24:20;24.70;74.80
66928;DHT22;59882;45.624;11.698;2023-07-20T00:26:46;24.60;74.90
66928;DHT22;59882;45.624;11.698;2023-07-20T00:29:12;24.60;75.30
66928;DHT22;59882;45.624;11.698;2023-07-20T00:31:37;24.50;75.60
66928;DHT22;59882;45.624;11.698;2023-07-20T00:34:04;24.40;75.80
66928;DHT22;59882;45.624;11.698;2023-07-20T00:36:30;24.50;76.00
66928;DHT22;59882;45.624;11.698;2023-07-20T00:38:55;24.40;76.00
66928;DHT22;59882;45.624;11.698;2023-07-20T00:41:22;24.40;76.00
66928;DHT22;59882;45.624;11.698;2023-07-20T00:43:47;24.40;76.20
66928;DHT22;59882;45.624;11.698;2023-07-20T00:46:13;24.40;76.30
66928;DHT22;59882;45.624;11.698;2023-07-20T00:48:40;24.40;76.40
66928;DHT22;59882;45.624;11.698;2023-07-20T00:51:06;24.40;76.50
66928;DHT22;59882;45.624;11.698;2023-07-20T00:53:32;24.30;76.80
66928;DHT22;59882;45.624;11.698;2023-07-20T00:55:58;24.30;76.80
66928;DHT22;59882;45.624;11.698;2023-07-20T00:58:24;24.30;76.90
66928;DHT22;59882;45.624;11.698;2023-07-20T01:00:50;24.30;76.70
66928;DHT22;59882;45.624;11.698;2023-07-20T01:03:16;24.30;77.50
66928;DHT22;59882;45.624;11.698;2023-07-20T01:06:25;24.30;77.60
66928;DHT22;59882;45.624;11.698;2023-07-20T01:09:14;24.30;77.80
66928;DHT22;59882;45.624;11.698;2023-07-20T01:12:13;24.40;77.80
66928;DHT22;59882;45.624;11.698;2023-07-20T01:14:42;24.40;77.10
66928;DHT22;59882;45.624;11.698;2023-07-20T01:17:08;24.40;76.20
66928;DHT22;59882;45.624;11.698;2023-07-20T01:19:33;24.30;76.40
66928;DHT22;59882;45.624;11.698;2023-07-20T01:25:18;24.00;76.80
66928;DHT22;59882;45.624;11.698;2023-07-20T01:30:59;24.00;77.30
66928;DHT22;59882;45.624;11.698;2023-07-20T01:33:27;23.90;77.70
66928;DHT22;59882;45.624;11.698;2023-07-20T01:35:56;23.80;77.90
66928;DHT22;59882;45.624;11.698;2023-07-20T01:38:23;23.90;78.00
66928;DHT22;59882;45.624;11.698;2023-07-20T01:40:49;23.90;78.30
66928;DHT22;59882;45.624;11.698;2023-07-20T01:43:16;23.90;78.40
66928;DHT22;59882;45.624;11.698;2023-07-20T01:45:41;23.90;77.90
66928;DHT22;59882;45.624;11.698;2023-07-20T01:48:07;24.00;78.20
66928;DHT22;59882;45.624;11.698;2023-07-20T01:50:33;24.00;78.40
66928;DHT22;59882;45.624;11.698;2023-07-20T01:53:00;24.00;78.00
66928;DHT22;59882;45.624;11.698;2023-07-20T01:55:26;24.10;78.20
66928;DHT22;59882;45.624;11.698;2023-07-20T01:57:52;24.10;78.10
66928;DHT22;59882;45.624;11.698;2023-07-20T02:00:18;24.10;77.70
66928;DHT22;59882;45.624;11.698;2023-07-20T02:02:46;24.20;77.40
66928;DHT22;59882;45.624;11.698;2023-07-20T02:05:12;24.20;78.00
66928;DHT22;59882;45.624;11.698;2023-07-20T02:07:38;24.20;77.90
66928;DHT22;59882;45.624;11.698;2023-07-20T02:10:04;24.10;77.40
66928;DHT22;59882;45.624;11.698;2023-07-20T02:12:30;24.10;77.30
66928;DHT22;59882;45.624;11.698;2023-07-20T02:14:55;24.10;77.30
66928;DHT22;59882;45.624;11.698;2023-07-20T02:17:21;24.10;77.30
66928;DHT22;59882;45.624;11.698;2023-07-20T02:19:46;24.00;77.20
66928;DHT22;59882;45.624;11.698;2023-07-20T02:22:15;24.00;77.70
66928;DHT22;59882;45.624;11.698;2023-07-20T02:24:42;24.00;77.50
66928;DHT22;59882;45.624;11.698;2023-07-20T02:27:07;23.90;77.50
66928;DHT22;59882;45.624;11.698;2023-07-20T02:29:33;23.90;78.20
66928;DHT22;59882;45.624;11.698;2023-07-20T02:31:59;23.90;77.60
66928;DHT22;59882;45.624;11.698;2023-07-20T02:34:25;23.90;77.40
66928;DHT22;59882;45.624;11.698;2023-07-20T02:36:50;23.90;77.50
66928;DHT22;59882;45.624;11.698;2023-07-20T02:39:16;23.90;77.30
66928;DHT22;59882;45.624;11.698;2023-07-20T02:41:42;23.90;77.10
66928;DHT22;59882;45.624;11.698;2023-07-20T02:44:07;23.90;76.70
66928;DHT22;59882;45.624;11.698;2023-07-20T02:46:33;23.90;76.60
66928;DHT22;59882;45.624;11.698;2023-07-20T02:49:00;23.90;76.00
66928;DHT22;59882;45.624;11.698;2023-07-20T02:51:26;23.90;75.70
66928;DHT22;59882;45.624;11.698;2023-07-20T02:53:52;23.90;75.50
66928;DHT22;59882;45.624;11.698;2023-07-20T02:56:17;23.90;75.20
66928;DHT22;59882;45.624;11.698;2023-07-20T02:58:43;23.90;75.30
66928;DHT22;59882;45.624;11.698;2023-07-20T03:01:09;23.90;75.70
66928;DHT22;59882;45.624;11.698;2023-07-20T03:03:38;23.80;75.80
66928;DHT22;59882;45.624;11.698;2023-07-20T03:06:04;23.80;75.70
66928;DHT22;59882;45.624;11.698;2023-07-20T03:08:30;23.80;75.60
66928;DHT22;59882;45.624;11.698;2023-07-20T03:10:55;23.90;75.80
66928;DHT22;59882;45.624;11.698;2023-07-20T03:13:21;23.80;76.00
66928;DHT22;59882;45.624;11.698;2023-07-20T03:15:47;23.90;76.00
66928;DHT22;59882;45.624;11.698;2023-07-20T03:18:12;23.90;76.10
66928;DHT22;59882;45.624;11.698;2023-07-20T03:20:38;23.90;76.00
66928;DHT22;59882;45.624;11.698;2023-07-20T03:23:04;23.90;76.20
66928;DHT22;59882;45.624;11.698;2023-07-20T03:25:30;23.90;76.40
66928;DHT22;59882;45.624;11.698;2023-07-20T03:27:55;23.90;76.60
66928;DHT22;59882;45.624;11.698;2023-07-20T03:30:21;23.80;76.80
66928;DHT22;59882;45.624;11.698;2023-07-20T03:32:47;23.70;76.50
66928;DHT22;59882;45.624;11.698;2023-07-20T03:35:12;23.70;76.60
66928;DHT22;59882;45.624;11.698;2023-07-20T03:37:38;23.70;76.50
66928;DHT22;59882;45.624;11.698;2023-07-20T03:40:04;23.70;76.70
66928;DHT22;59882;45.624;11.698;2023-07-20T03:42:30;23.60;76.70
66928;DHT22;59882;45.624;11.698;2023-07-20T03:44:56;23.60;76.50
66928;DHT22;59882;45.624;11.698;2023-07-20T03:47:21;23.60;76.40
66928;DHT22;59882;45.624;11.698;2023-07-20T03:49:47;23.60;76.30
66928;DHT22;59882;45.624;11.698;2023-07-20T03:52:13;23.50;76.40
66928;DHT22;59882;45.624;11.698;2023-07-20T03:54:38;23.40;76.30
66928;DHT22;59882;45.624;11.698;2023-07-20T03:57:04;23.40;76.50
66928;DHT22;59882;45.624;11.698;2023-07-20T03:59:30;23.40;76.60
66928;DHT22;59882;45.624;11.698;2023-07-20T04:01:55;23.40;76.50
66928;DHT22;59882;45.624;11.698;2023-07-20T04:04:21;23.40;76.40
66928;DHT22;59882;45.624;11.698;2023-07-20T04:06:47;23.40;76.40
66928;DHT22;59882;45.624;11.698;2023-07-20T04:09:12;23.40;76.20
66928;DHT22;59882;45.624;11.698;2023-07-20T04:11:38;23.40;75.90
66928;DHT22;59882;45.624;11.698;2023-07-20T04:14:04;23.30;75.80
66928;DHT22;59882;45.624;11.698;2023-07-20T04:16:30;23.20;76.00
66928;DHT22;59882;45.624;11.698;2023-07-20T04:18:56;23.20;76.30
66928;DHT22;59882;45.624;11.698;2023-07-20T04:23:47;23.20;76.60
66928;DHT22;59882;45.624;11.698;2023-07-20T04:26:13;23.20;76.40
66928;DHT22;59882;45.624;11.698;2023-07-20T04:28:40;23.20;76.20
66928;DHT22;59882;45.624;11.698;2023-07-20T04:31:15;23.20;76.00
66928;DHT22;59882;45.624;11.698;2023-07-20T04:33:41;23.30;75.90
66928;DHT22;59882;45.624;11.698;2023-07-20T04:36:07;23.30;76.30
66928;DHT22;59882;45.624;11.698;2023-07-20T04:38:33;23.40;76.10
66928;DHT22;59882;45.624;11.698;2023-07-20T04:40:59;23.50;76.00
66928;DHT22;59882;45.624;11.698;2023-07-20T04:43:25;23.50;75.50
66928;DHT22;59882;45.624;11.698;2023-07-20T04:45:51;23.60;75.40
66928;DHT22;59882;45.624;11.698;2023-07-20T04:48:17;23.70;75.20
66928;DHT22;59882;45.624;11.698;2023-07-20T04:50:44;23.70;75.40
66928;DHT22;59882;45.624;11.698;2023-07-20T04:53:11;23.70;75.70
66928;DHT22;59882;45.624;11.698;2023-07-20T04:55:38;23.60;75.60
66928;DHT22;59882;45.624;11.698;2023-07-20T04:58:03;23.70;75.80
66928;DHT22;59882;45.624;11.698;2023-07-20T05:00:30;23.70;75.70
66928;DHT22;59882;45.624;11.698;2023-07-20T05:02:56;23.80;75.30
66928;DHT22;59882;45.624;11.698;2023-07-20T05:05:22;23.80;75.10
66928;DHT22;59882;45.624;11.698;2023-07-20T05:07:48;23.90;75.00
66928;DHT22;59882;45.624;11.698;2023-07-20T05:10:13;23.90;74.60
66928;DHT22;59882;45.624;11.698;2023-07-20T05:12:39;23.90;74.90
66928;DHT22;59882;45.624;11.698;2023-07-20T05:15:05;23.90;74.90
66928;DHT22;59882;45.624;11.698;2023-07-20T05:17:31;23.90;74.10
66928;DHT22;59882;45.624;11.698;2023-07-20T05:19:56;23.90;73.20
66928;DHT22;59882;45.624;11.698;2023-07-20T05:22:22;24.00;73.30
66928;DHT22;59882;45.624;11.698;2023-07-20T05:24:48;24.00;72.90
66928;DHT22;59882;45.624;11.698;2023-07-20T05:27:14;24.10;72.90
66928;DHT22;59882;45.624;11.698;2023-07-20T05:29:48;24.20;72.40
66928;DHT22;59882;45.624;11.698;2023-07-20T05:32:14;24.30;72.50
66928;DHT22;59882;45.624;11.698;2023-07-20T05:34:40;24.30;72.70
66928;DHT22;59882;45.624;11.698;2023-07-20T05:37:05;24.40;72.70
66928;DHT22;59882;45.624;11.698;2023-07-20T05:39:34;24.40;72.60
66928;DHT22;59882;45.624;11.698;2023-07-20T05:42:00;24.40;72.60
66928;DHT22;59882;45.624;11.698;2023-07-20T05:44:25;24.50;72.50
66928;DHT22;59882;45.624;11.698;2023-07-20T05:46:51;24.50;72.50
66928;DHT22;59882;45.624;11.698;2023-07-20T05:49:16;24.60;72.10
66928;DHT22;59882;45.624;11.698;2023-07-20T05:51:42;24.70;71.60
66928;DHT22;59882;45.624;11.698;2023-07-20T05:54:07;24.70;71.60
66928;DHT22;59882;45.624;11.698;2023-07-20T05:56:33;24.70;71.40
66928;DHT22;59882;45.624;11.698;2023-07-20T05:58:59;24.80;71.10
66928;DHT22;59882;45.624;11.698;2023-07-20T06:01:24;24.90;70.80
66928;DHT22;59882;45.624;11.698;2023-07-20T06:03:53;24.90;70.50
66928;DHT22;59882;45.624;11.698;2023-07-20T06:06:19;24.90;70.30
66928;DHT22;59882;45.624;11.698;2023-07-20T06:08:45;25.00;70.10
66928;DHT22;59882;45.624;11.698;2023-07-20T06:11:11;25.00;69.60
66928;DHT22;59882;45.624;11.698;2023-07-20T06:13:36;25.00;69.90
66928;DHT22;59882;45.624;11.698;2023-07-20T06:16:03;25.10;70.30
66928;DHT22;59882;45.624;11.698;2023-07-20T06:18:29;25.00;70.10
66928;DHT22;59882;45.624;11.698;2023-07-20T06:20:55;25.10;70.10
66928;DHT22;59882;45.624;11.698;2023-07-20T06:23:21;25.20;69.90
66928;DHT22;59882;45.624;11.698;2023-07-20T06:25:47;25.20;69.80
66928;DHT22;59882;45.624;11.698;2023-07-20T06:28:13;25.40;69.70
66928;DHT22;59882;45.624;11.698;2023-07-20T06:30:38;25.40;69.80
66928;DHT22;59882;45.624;11.698;2023-07-20T06:33:04;25.50;69.20
66928;DHT22;59882;45.624;11.698;2023-07-20T06:35:30;25.50;69.00
66928;DHT22;59882;45.624;11.698;2023-07-20T06:37:56;25.50;68.60
66928;DHT22;59882;45.624;11.698;2023-07-20T06:40:21;25.60;68.90
66928;DHT22;59882;45.624;11.698;2023-07-20T06:42:47;25.60;68.90
66928;DHT22;59882;45.624;11.698;2023-07-20T06:45:13;25.70;68.70
66928;DHT22;59882;45.624;11.698;2023-07-20T06:47:39;25.70;68.40
66928;DHT22;59882;45.624;11.698;2023-07-20T06:50:08;25.80;68.80
66928;DHT22;59882;45.624;11.698;2023-07-20T06:52:34;25.90;68.60
66928;DHT22;59882;45.624;11.698;2023-07-20T06:55:00;25.90;68.50
66928;DHT22;59882;45.624;11.698;2023-07-20T06:57:26;25.90;68.50
66928;DHT22;59882;45.624;11.698;2023-07-20T06:59:52;26.00;68.30
66928;DHT22;59882;45.624;11.698;2023-07-20T07:02:18;26.00;67.90
66928;DHT22;59882;45.624;11.698;2023-07-20T07:04:44;26.10;67.90
66928;DHT22;59882;45.624;11.698;2023-07-20T07:07:14;26.20;67.90
66928;DHT22;59882;45.624;11.698;2023-07-20T07:09:41;26.20;67.50
66928;DHT22;59882;45.624;11.698;2023-07-20T07:12:07;26.20;67.20
66928;DHT22;59882;45.624;11.698;2023-07-20T07:14:33;26.30;67.10
66928;DHT22;59882;45.624;11.698;2023-07-20T07:16:59;26.30;66.60
66928;DHT22;59882;45.624;11.698;2023-07-20T07:19:25;26.40;66.20
66928;DHT22;59882;45.624;11.698;2023-07-20T07:21:50;26.40;66.10
66928;DHT22;59882;45.624;11.698;2023-07-20T07:24:16;26.40;65.70
66928;DHT22;59882;45.624;11.698;2023-07-20T07:26:42;26.50;65.60
66928;DHT22;59882;45.624;11.698;2023-07-20T07:29:08;26.50;65.00
66928;DHT22;59882;45.624;11.698;2023-07-20T07:31:34;26.50;65.40
66928;DHT22;59882;45.624;11.698;2023-07-20T07:34:04;26.60;64.60
66928;DHT22;59882;45.624;11.698;2023-07-20T07:36:30;26.60;64.30
66928;DHT22;59882;45.624;11.698;2023-07-20T07:38:56;26.70;64.90
66928;DHT22;59882;45.624;11.698;2023-07-20T07:41:22;26.70;64.80
66928;DHT22;59882;45.624;11.698;2023-07-20T07:43:48;26.80;65.20
66928;DHT22;59882;45.624;11.698;2023-07-20T07:46:14;26.80;65.70
66928;DHT22;59882;45.624;11.698;2023-07-20T07:48:40;26.90;66.30
66928;DHT22;59882;45.624;11.698;2023-07-20T07:51:05;26.90;66.30
66928;DHT22;59882;45.624;11.698;2023-07-20T07:53:31;26.90;65.90
66928;DHT22;59882;45.624;11.698;2023-07-20T07:55:58;26.90;66.20
66928;DHT22;59882;45.624;11.698;2023-07-20T07:58:23;26.90;66.50
66928;DHT22;59882;45.624;11.698;2023-07-20T08:00:49;27.00;66.50
66928;DHT22;59882;45.624;11.698;2023-07-20T08:03:15;27.00;66.70
66928;DHT22;59882;45.624;11.698;2023-07-20T08:05:41;27.10;66.80
66928;DHT22;59882;45.624;11.698;2023-07-20T08:08:06;27.10;66.60
66928;DHT22;59882;45.624;11.698;2023-07-20T08:10:34;27.10;66.90
66928;DHT22;59882;45.624;11.698;2023-07-20T08:12:59;27.20;66.90
66928;DHT22;59882;45.624;11.698;2023-07-20T08:15:25;27.30;66.40
66928;DHT22;59882;45.624;11.698;2023-07-20T08:17:51;27.30;66.20
66928;DHT22;59882;45.624;11.698;2023-07-20T08:20:17;27.30;66.20
66928;DHT22;59882;45.624;11.698;2023-07-20T08:22:43;27.40;65.80
66928;DHT22;59882;45.624;11.698;2023-07-20T08:25:09;27.40;65.80
66928;DHT22;59882;45.624;11.698;2023-07-20T08:27:36;27.40;66.00
66928;DHT22;59882;45.624;11.698;2023-07-20T08:30:02;27.40;65.90
66928;DHT22;59882;45.624;11.698;2023-07-20T08:32:28;27.50;65.70
66928;DHT22;59882;45.624;11.698;2023-07-20T08:34:54;27.60;64.20
66928;DHT22;59882;45.624;11.698;2023-07-20T08:37:19;27.60;65.10
66928;DHT22;59882;45.624;11.698;2023-07-20T08:39:45;27.60;64.80
66928;DHT22;59882;45.624;11.698;2023-07-20T08:42:11;27.70;64.40
66928;DHT22;59882;45.624;11.698;2023-07-20T08:44:39;27.70;63.20
66928;DHT22;59882;45.624;11.698;2023-07-20T08:47:06;27.80;63.50
66928;DHT22;59882;45.624;11.698;2023-07-20T08:49:34;27.80;63.20
66928;DHT22;59882;45.624;11.698;2023-07-20T08:52:00;27.80;63.00
66928;DHT22;59882;45.624;11.698;2023-07-20T08:54:30;27.90;63.00
66928;DHT22;59882;45.624;11.698;2023-07-20T08:57:04;27.90;62.40
66928;DHT22;59882;45.624;11.698;2023-07-20T08:59:30;28.00;62.40
66928;DHT22;59882;45.624;11.698;2023-07-20T09:01:59;28.00;62.40
66928;DHT22;59882;45.624;11.698;2023-07-20T09:04:25;28.00;62.60
66928;DHT22;59882;45.624;11.698;2023-07-20T09:06:51;28.10;62.70
66928;DHT22;59882;45.624;11.698;2023-07-20T09:09:17;28.20;61.70
66928;DHT22;59882;45.624;11.698;2023-07-20T09:11:46;28.20;61.50
66928;DHT22;59882;45.624;11.698;2023-07-20T09:14:11;28.30;61.30
66928;DHT22;59882;45.624;11.698;2023-07-20T09:16:57;28.30;60.80
66928;DHT22;59882;45.624;11.698;2023-07-20T09:19:23;28.40;59.60
66928;DHT22;59882;45.624;11.698;2023-07-20T09:21:49;28.40;58.40
66928;DHT22;59882;45.624;11.698;2023-07-20T09:24:17;28.50;59.40
66928;DHT22;59882;45.624;11.698;2023-07-20T09:26:44;28.50;59.20
66928;DHT22;59882;45.624;11.698;2023-07-20T09:29:10;28.60;59.40
66928;DHT22;59882;45.624;11.698;2023-07-20T09:31:37;28.50;58.80
66928;DHT22;59882;45.624;11.698;2023-07-20T09:34:04;28.60;58.30
66928;DHT22;59882;45.624;11.698;2023-07-20T09:36:33;28.60;57.50
66928;DHT22;59882;45.624;11.698;2023-07-20T09:38:59;28.60;58.50
66928;DHT22;59882;45.624;11.698;2023-07-20T09:41:25;28.70;57.80
66928;DHT22;59882;45.624;11.698;2023-07-20T09:43:53;28.70;56.30
66928;DHT22;59882;45.624;11.698;2023-07-20T09:46:19;28.70;56.00
66928;DHT22;59882;45.624;11.698;2023-07-20T09:48:54;28.80;55.80
66928;DHT22;59882;45.624;11.698;2023-07-20T09:51:23;28.90;55.20
66928;DHT22;59882;45.624;11.698;2023-07-20T09:53:52;28.90;55.50
66928;DHT22;59882;45.624;11.698;2023-07-20T09:56:21;28.90;57.20
66928;DHT22;59882;45.624;11.698;2023-07-20T09:58:48;29.00;57.20
66928;DHT22;59882;45.624;11.698;2023-07-20T10:01:17;29.00;57.30
66928;DHT22;59882;45.624;11.698;2023-07-20T10:03:45;29.10;56.30
66928;DHT22;59882;45.624;11.698;2023-07-20T10:06:15;29.30;56.10
66928;DHT22;59882;45.624;11.698;2023-07-20T10:08:45;29.20;56.90
66928;DHT22;59882;45.624;11.698;2023-07-20T10:11:15;29.30;57.40
66928;DHT22;59882;45.624;11.698;2023-07-20T10:13:43;29.40;57.50
66928;DHT22;59882;45.624;11.698;2023-07-20T10:16:15;29.40;57.00
66928;DHT22;59882;45.624;11.698;2023-07-20T10:21:29;29.50;56.80
66928;DHT22;59882;45.624;11.698;2023-07-20T10:23:56;29.50;55.90
66928;DHT22;59882;45.624;11.698;2023-07-20T10:26:22;29.50;54.40
66928;DHT22;59882;45.624;11.698;2023-07-20T10:28:48;29.60;56.20
66928;DHT22;59882;45.624;11.698;2023-07-20T10:31:15;29.70;55.10
66928;DHT22;59882;45.624;11.698;2023-07-20T10:33:41;29.80;55.40
66928;DHT22;59882;45.624;11.698;2023-07-20T10:36:07;29.80;55.70
66928;DHT22;59882;45.624;11.698;2023-07-20T10:38:42;29.90;53.80
66928;DHT22;59882;45.624;11.698;2023-07-20T10:41:37;30.00;53.90
66928;DHT22;59882;45.624;11.698;2023-07-20T10:44:07;30.00;53.70
66928;DHT22;59882;45.624;11.698;2023-07-20T10:49:06;30.00;52.70
66928;DHT22;59882;45.624;11.698;2023-07-20T10:51:45;30.10;52.00
66928;DHT22;59882;45.624;11.698;2023-07-20T10:56:41;30.20;53.90
66928;DHT22;59882;45.624;11.698;2023-07-20T10:59:18;30.20;54.70
66928;DHT22;59882;45.624;11.698;2023-07-20T11:01:47;30.20;50.10
66928;DHT22;59882;45.624;11.698;2023-07-20T11:04:15;30.20;53.20
66928;DHT22;59882;45.624;11.698;2023-07-20T11:06:45;30.30;53.30
66928;DHT22;59882;45.624;11.698;2023-07-20T11:09:13;30.40;53.00
66928;DHT22;59882;45.624;11.698;2023-07-20T11:11:46;30.40;50.50
66928;DHT22;59882;45.624;11.698;2023-07-20T11:14:23;30.40;50.90
66928;DHT22;59882;45.624;11.698;2023-07-20T11:16:49;30.40;51.90
66928;DHT22;59882;45.624;11.698;2023-07-20T11:19:20;30.50;52.60
66928;DHT22;59882;45.624;11.698;2023-07-20T11:21:56;30.50;50.40
66928;DHT22;59882;45.624;11.698;2023-07-20T11:24:23;30.60;48.30
66928;DHT22;59882;45.624;11.698;2023-07-20T11:26:50;30.60;51.10
66928;DHT22;59882;45.624;11.698;2023-07-20T11:29:18;30.70;50.80
66928;DHT22;59882;45.624;11.698;2023-07-20T11:31:45;30.70;51.00
66928;DHT22;59882;45.624;11.698;2023-07-20T11:34:13;30.80;51.40
66928;DHT22;59882;45.624;11.698;2023-07-20T11:36:44;30.80;51.50
66928;DHT22;59882;45.624;11.698;2023-07-20T11:39:10;30.90;48.70
66928;DHT22;59882;45.624;11.698;2023-07-20T11:41:36;31.00;49.00
66928;DHT22;59882;45.624;11.698;2023-07-20T11:44:04;31.00;48.90
66928;DHT22;59882;45.624;11.698;2023-07-20T11:46:31;31.00;45.60
66928;DHT22;59882;45.624;11.698;2023-07-20T11:49:01;31.10;47.70
66928;DHT22;59882;45.624;11.698;2023-07-20T11:51:28;31.20;48.20
66928;DHT22;59882;45.624;11.698;2023-07-20T11:53:55;31.30;48.80
66928;DHT22;59882;45.624;11.698;2023-07-20T11:56:23;31.40;48.30
66928;DHT22;59882;45.624;11.698;2023-07-20T11:58:48;31.50;47.70
66928;DHT22;59882;45.624;11.698;2023-07-20T12:01:15;31.50;46.50
66928;DHT22;59882;45.624;11.698;2023-07-20T12:03:42;31.50;45.30
66928;DHT22;59882;45.624;11.698;2023-07-20T12:06:09;31.60;46.50
66928;DHT22;59882;45.624;11.698;2023-07-20T12:08:38;31.70;48.50
66928;DHT22;59882;45.624;11.698;2023-07-20T12:11:05;31.90;48.00
66928;DHT22;59882;45.624;11.698;2023-07-20T12:13:43;32.00;48.20
66928;DHT22;59882;45.624;11.698;2023-07-20T12:16:14;32.10;47.40
66928;DHT22;59882;45.624;11.698;2023-07-20T12:18:40;32.30;46.60
66928;DHT22;59882;45.624;11.698;2023-07-20T12:21:07;32.30;47.00
66928;DHT22;59882;45.624;11.698;2023-07-20T12:23:40;32.40;45.20
66928;DHT22;59882;45.624;11.698;2023-07-20T12:26:07;32.40;44.40
66928;DHT22;59882;45.624;11.698;2023-07-20T12:28:39;32.40;44.20
66928;DHT22;59882;45.624;11.698;2023-07-20T12:31:06;32.50;46.40
66928;DHT22;59882;45.624;11.698;2023-07-20T12:33:32;32.60;45.50
66928;DHT22;59882;45.624;11.698;2023-07-20T12:35:59;32.70;45.30
66928;DHT22;59882;45.624;11.698;2023-07-20T12:38:25;32.80;45.90
66928;DHT22;59882;45.624;11.698;2023-07-20T12:40:52;33.00;43.20
66928;DHT22;59882;45.624;11.698;2023-07-20T12:43:20;33.10;44.50
66928;DHT22;59882;45.624;11.698;2023-07-20T12:45:46;33.20;44.30
66928;DHT22;59882;45.624;11.698;2023-07-20T12:48:11;33.30;44.20
66928;DHT22;59882;45.624;11.698;2023-07-20T12:50:37;33.40;44.10
66928;DHT22;59882;45.624;11.698;2023-07-20T12:53:02;33.50;43.30
66928;DHT22;59882;45.624;11.698;2023-07-20T12:55:29;33.60;39.80
66928;DHT22;59882;45.624;11.698;2023-07-20T12:57:55;33.70;41.70
66928;DHT22;59882;45.624;11.698;2023-07-20T13:00:21;33.80;41.50
66928;DHT22;59882;45.624;11.698;2023-07-20T13:02:50;34.00;41.60
66928;DHT22;59882;45.624;11.698;2023-07-20T13:05:16;34.20;41.40
66928;DHT22;59882;45.624;11.698;2023-07-20T13:07:42;34.90;38.90
66928;DHT22;59882;45.624;11.698;2023-07-20T13:10:09;36.80;35.40
66928;DHT22;59882;45.624;11.698;2023-07-20T13:12:36;39.10;34.00
66928;DHT22;59882;45.624;11.698;2023-07-20T13:15:04;41.40;30.90
66928;DHT22;59882;45.624;11.698;2023-07-20T13:17:34;43.20;30.20
66928;DHT22;59882;45.624;11.698;2023-07-20T13:20:00;44.90;25.90
66928;DHT22;59882;45.624;11.698;2023-07-20T13:22:26;46.20;24.00
66928;DHT22;59882;45.624;11.698;2023-07-20T13:24:53;47.30;25.10
66928;DHT22;59882;45.624;11.698;2023-07-20T13:27:19;48.10;23.30
66928;DHT22;59882;45.624;11.698;2023-07-20T13:29:46;49.00;22.70
66928;DHT22;59882;45.624;11.698;2023-07-20T13:32:15;49.80;22.20
66928;DHT22;59882;45.624;11.698;2023-07-20T13:34:41;50.40;20.80
66928;DHT22;59882;45.624;11.698;2023-07-20T13:37:07;50.90;20.60
66928;DHT22;59882;45.624;11.698;2023-07-20T13:39:33;51.40;21.00
66928;DHT22;59882;45.624;11.698;2023-07-20T13:41:59;51.50;20.70
66928;DHT22;59882;45.624;11.698;2023-07-20T13:44:26;51.90;21.00
66928;DHT22;59882;45.624;11.698;2023-07-20T13:46:52;52.00;20.30
66928;DHT22;59882;45.624;11.698;2023-07-20T13:49:18;52.30;18.60
66928;DHT22;59882;45.624;11.698;2023-07-20T13:51:44;52.20;19.70
66928;DHT22;59882;45.624;11.698;2023-07-20T13:54:10;52.00;20.10
66928;DHT22;59882;45.624;11.698;2023-07-20T13:56:35;52.00;20.50
66928;DHT22;59882;45.624;11.698;2023-07-20T13:59:01;51.90;19.00
66928;DHT22;59882;45.624;11.698;2023-07-20T14:01:27;51.80;19.70
66928;DHT22;59882;45.624;11.698;2023-07-20T14:03:55;51.90;20.50
66928;DHT22;59882;45.624;11.698;2023-07-20T14:06:21;51.90;19.70
66928;DHT22;59882;45.624;11.698;2023-07-20T14:08:47;51.80;20.40
66928;DHT22;59882;45.624;11.698;2023-07-20T14:11:14;51.80;19.90
66928;DHT22;59882;45.624;11.698;2023-07-20T14:13:39;51.70;20.10
66928;DHT22;59882;45.624;11.698;2023-07-20T14:16:05;51.90;20.90
66928;DHT22;59882;45.624;11.698;2023-07-20T14:18:31;51.90;20.30
66928;DHT22;59882;45.624;11.698;2023-07-20T14:20:56;52.00;20.50
66928;DHT22;59882;45.624;11.698;2023-07-20T14:23:22;52.00;20.40
66928;DHT22;59882;45.624;11.698;2023-07-20T14:25:48;52.00;20.20
66928;DHT22;59882;45.624;11.698;2023-07-20T14:28:14;52.00;20.50
66928;DHT22;59882;45.624;11.698;2023-07-20T14:30:40;51.70;20.40
66928;DHT22;59882;45.624;11.698;2023-07-20T14:33:06;51.60;20.60
66928;DHT22;59882;45.624;11.698;2023-07-20T14:35:33;51.40;20.60
66928;DHT22;59882;45.624;11.698;2023-07-20T14:37:59;51.40;20.10
66928;DHT22;59882;45.624;11.698;2023-07-20T14:40:25;51.20;21.00
66928;DHT22;59882;45.624;11.698;2023-07-20T14:42:51;51.10;19.80
66928;DHT22;59882;45.624;11.698;2023-07-20T14:45:17;50.70;19.80
66928;DHT22;59882;45.624;11.698;2023-07-20T14:47:43;50.20;20.40
66928;DHT22;59882;45.624;11.698;2023-07-20T14:50:09;49.60;20.90
66928;DHT22;59882;45.624;11.698;2023-07-20T14:52:35;49.20;21.50
66928;DHT22;59882;45.624;11.698;2023-07-20T14:55:01;48.70;21.60
66928;DHT22;59882;45.624;11.698;2023-07-20T14:57:26;48.20;20.70
66928;DHT22;59882;45.624;11.698;2023-07-20T14:59:52;47.40;21.90
66928;DHT22;59882;45.624;11.698;2023-07-20T15:02:19;46.70;22.90
66928;DHT22;59882;45.624;11.698;2023-07-20T15:04:48;46.30;23.10
66928;DHT22;59882;45.624;11.698;2023-07-20T15:07:23;45.90;24.00
66928;DHT22;59882;45.624;11.698;2023-07-20T15:09:49;45.50;24.70
66928;DHT22;59882;45.624;11.698;2023-07-20T15:12:15;45.00;25.50
66928;DHT22;59882;45.624;11.698;2023-07-20T15:14:42;44.50;25.40
66928;DHT22;59882;45.624;11.698;2023-07-20T15:17:09;44.00;26.40
66928;DHT22;59882;45.624;11.698;2023-07-20T15:19:34;43.40;27.50
66928;DHT22;59882;45.624;11.698;2023-07-20T15:22:01;43.00;27.90
66928;DHT22;59882;45.624;11.698;2023-07-20T15:24:29;42.80;27.70
66928;DHT22;59882;45.624;11.698;2023-07-20T15:26:54;42.50;28.10
66928;DHT22;59882;45.624;11.698;2023-07-20T15:29:20;42.10;28.80
66928;DHT22;59882;45.624;11.698;2023-07-20T15:31:46;41.70;29.70